Terminal Aerodrome Forecast
Issued by NWS

Home | Current Version | Previous Version | Text Only | Print | Product List | Glossary On
Versions: 1 2 3 4 5 6 7 8 9 10 11 12 13
968
FTUS45 KABQ 241122
TAFFMN
TAF
KFMN 241122Z 2412/2512 05006KT P6SM SKC
     FM241700 21007KT P6SM SKC
     FM242000 24012G18KT P6SM FEW080
     FM250100 24006KT P6SM SKC
     FM250800 08006KT P6SM SKC=

USA.gov is the U.S. government's official web portal to all federal, state and local government web resources and services.